createdAt,value
2019-03-23T00:04:17.514Z,15.80
2019-03-23T00:09:21.025Z,16.60
2019-03-23T00:14:24.545Z,16.45
2019-03-23T00:19:28.990Z,15.88
2019-03-23T00:24:32.529Z,15.78
2019-03-23T00:29:36.011Z,16.73
2019-03-23T00:34:39.862Z,15.43
2019-03-23T00:39:43.426Z,17.67
2019-03-23T00:44:46.910Z,16.60
2019-03-23T00:49:50.388Z,16.32
2019-03-23T00:54:53.872Z,17.02
2019-03-23T00:59:57.353Z,15.75
2019-03-23T01:05:00.826Z,16.87
2019-03-23T01:10:09.952Z,16.70
2019-03-23T01:15:15.070Z,16.48
2019-03-23T01:20:18.637Z,16.75
2019-03-23T01:25:22.174Z,17.40
2019-03-23T01:30:25.659Z,16.93
2019-03-23T01:35:29.218Z,17.00
2019-03-23T01:40:32.745Z,15.70
2019-03-23T01:45:36.255Z,15.60
2019-03-23T01:50:39.757Z,16.57
2019-03-23T01:55:43.249Z,16.57
2019-03-23T02:00:46.747Z,15.20
2019-03-23T02:05:50.284Z,15.08
2019-03-23T02:10:53.794Z,16.00
2019-03-23T02:15:57.360Z,16.82
2019-03-23T02:21:02.363Z,17.77
2019-03-23T02:26:05.830Z,19.20
2019-03-23T02:31:09.339Z,19.82
2019-03-23T02:36:12.913Z,19.30
2019-03-23T02:41:16.459Z,20.50
2019-03-23T02:46:19.952Z,21.42
2019-03-23T02:51:23.525Z,21.00
2019-03-23T02:56:27.093Z,20.15
2019-03-23T03:01:30.598Z,19.23
2019-03-23T03:06:34.103Z,19.40
2019-03-23T03:11:37.594Z,19.70
2019-03-23T03:16:41.173Z,18.57
2019-03-23T03:21:44.716Z,19.02
2019-03-23T03:26:48.526Z,19.57
2019-03-23T03:31:52.033Z,20.72
2019-03-23T03:36:55.583Z,20.05
2019-03-23T03:41:59.208Z,20.72
2019-03-23T03:47:02.785Z,21.97
2019-03-23T03:52:06.400Z,20.97
2019-03-23T03:57:09.878Z,19.90
2019-03-23T04:02:13.419Z,20.72
2019-03-23T04:07:16.923Z,19.05
2019-03-23T04:12:20.479Z,20.35
2019-03-23T04:17:24.041Z,18.23
2019-03-23T04:22:27.588Z,19.02
2019-03-23T04:27:31.157Z,18.57
2019-03-23T04:32:34.690Z,18.32
2019-03-23T04:37:38.231Z,18.52
2019-03-23T04:42:41.716Z,17.98
2019-03-23T04:47:45.225Z,18.45
2019-03-23T04:52:48.985Z,18.32
2019-03-23T04:57:52.542Z,18.92
2019-03-23T05:02:56.101Z,18.55
2019-03-23T05:07:59.710Z,17.27
2019-03-23T05:13:03.247Z,17.10
2019-03-23T05:18:06.754Z,16.55
2019-03-23T05:23:10.407Z,17.27
2019-03-23T05:28:13.903Z,16.42
2019-03-23T05:33:17.405Z,16.00
2019-03-23T05:38:20.921Z,16.50
2019-03-23T05:43:24.383Z,16.07
2019-03-23T05:48:27.858Z,14.65
2019-03-23T05:53:31.353Z,13.70
2019-03-23T05:58:34.830Z,14.23
2019-03-23T06:03:38.318Z,13.98
2019-03-23T06:08:41.889Z,13.00
2019-03-23T06:13:46.896Z,12.70
2019-03-23T06:18:50.410Z,11.93
2019-03-23T06:23:54.001Z,12.00
2019-03-23T06:28:57.470Z,11.80
2019-03-23T06:34:01.067Z,10.58
2019-03-23T06:39:06.694Z,9.48
2019-03-23T06:44:10.161Z,9.73
2019-03-23T06:49:13.670Z,10.53
2019-03-23T06:54:17.246Z,9.83
2019-03-23T06:59:20.783Z,10.60
2019-03-23T07:04:26.571Z,10.18
2019-03-23T07:09:29.482Z,10.98
2019-03-23T07:14:32.969Z,10.50
2019-03-23T07:19:36.526Z,10.30
2019-03-23T07:24:40.071Z,10.38
2019-03-23T07:29:44.022Z,10.65
2019-03-23T07:34:47.562Z,10.45
2019-03-23T07:39:51.078Z,39.60
2019-03-23T07:44:54.614Z,19.35
2019-03-23T07:49:58.159Z,16.77
2019-03-23T07:55:09.959Z,15.18
2019-03-23T08:00:18.719Z,13.80
2019-03-23T08:05:22.278Z,11.33
2019-03-23T08:10:30.302Z,11.63
2019-03-23T08:15:34.768Z,10.75
2019-03-23T08:20:38.314Z,9.43
2019-03-23T08:25:41.790Z,9.90
2019-03-23T08:30:45.301Z,9.93
2019-03-23T08:35:48.801Z,9.10
2019-03-23T08:40:52.361Z,8.75
2019-03-23T08:45:55.858Z,8.50
2019-03-23T08:51:02.254Z,7.47
2019-03-23T08:56:05.734Z,6.85
2019-03-23T09:01:09.361Z,7.05
2019-03-23T09:06:12.942Z,7.00
2019-03-23T09:11:20.421Z,6.35
2019-03-23T09:16:21.719Z,6.60
2019-03-23T09:21:25.284Z,6.60
2019-03-23T09:26:28.774Z,6.37
2019-03-23T09:31:32.239Z,6.17
2019-03-23T09:36:35.938Z,5.62
2019-03-23T09:41:39.478Z,6.20
2019-03-23T09:46:42.971Z,6.53
2019-03-23T09:51:47.109Z,6.67
2019-03-23T09:56:50.570Z,5.92
2019-03-23T10:01:54.041Z,6.00
2019-03-23T10:06:57.629Z,7.00
2019-03-23T10:12:01.147Z,6.78
2019-03-23T10:17:04.791Z,6.30
2019-03-23T10:22:08.302Z,6.37
2019-03-23T10:27:11.905Z,5.97
2019-03-23T10:32:15.450Z,6.50
2019-03-23T10:37:18.918Z,6.08
2019-03-23T10:42:22.444Z,5.92
2019-03-23T10:47:26.187Z,6.20
2019-03-23T10:52:29.831Z,5.78
2019-03-23T10:57:33.307Z,5.80
2019-03-23T11:02:36.847Z,5.70
2019-03-23T11:07:40.343Z,5.72
2019-03-23T11:12:43.838Z,5.83
2019-03-23T11:17:47.318Z,5.70
2019-03-23T11:22:50.857Z,5.47
2019-03-23T11:27:54.362Z,5.40
2019-03-23T11:32:57.854Z,5.37
2019-03-23T11:38:02.497Z,6.28
2019-03-23T11:43:06.289Z,6.20
2019-03-23T11:48:09.878Z,6.08
2019-03-23T11:53:13.351Z,7.25
2019-03-23T11:58:16.886Z,6.92
2019-03-23T12:03:20.375Z,7.85
2019-03-23T12:08:23.841Z,6.90
2019-03-23T12:13:27.305Z,6.70
2019-03-23T12:18:30.777Z,7.15
2019-03-23T12:23:34.251Z,7.05
2019-03-23T12:28:37.795Z,7.15
2019-03-23T12:33:41.361Z,6.67
2019-03-23T12:38:45.095Z,7.12
2019-03-23T12:43:48.638Z,7.25
2019-03-23T12:48:52.147Z,6.85
2019-03-23T12:53:55.609Z,6.55
2019-03-23T12:58:59.159Z,7.35
2019-03-23T13:04:02.716Z,6.50
2019-03-23T13:09:07.462Z,6.33
2019-03-23T13:14:10.925Z,6.20
2019-03-23T13:19:14.474Z,8.35
2019-03-23T13:24:17.980Z,13.13
2019-03-23T13:29:21.480Z,12.23
2019-03-23T13:34:25.006Z,12.28
2019-03-23T13:39:28.506Z,11.40
2019-03-23T13:44:32.004Z,9.73
2019-03-23T13:49:35.469Z,8.65
2019-03-23T13:54:39.003Z,8.80
2019-03-23T13:59:42.523Z,8.18
2019-03-23T14:04:46.085Z,8.55
2019-03-23T14:09:49.615Z,8.05
2019-03-23T14:14:53.165Z,7.10
2019-03-23T14:19:56.699Z,7.33
2019-03-23T14:25:00.327Z,7.95
2019-03-23T14:30:06.808Z,7.08
2019-03-23T14:35:10.715Z,7.40
2019-03-23T14:40:14.242Z,7.15
2019-03-23T14:45:17.750Z,6.80
2019-03-23T14:50:21.287Z,6.53
2019-03-23T14:55:24.774Z,6.15
2019-03-23T15:00:32.829Z,6.85
2019-03-23T15:05:36.318Z,7.55
2019-03-23T15:10:39.933Z,6.87
2019-03-23T15:15:43.473Z,6.15
2019-03-23T15:20:47.023Z,6.30
2019-03-23T15:25:50.554Z,7.22
2019-03-23T15:30:54.047Z,6.75
2019-03-23T15:35:57.524Z,6.00
2019-03-23T15:41:00.992Z,6.05
2019-03-23T15:46:04.530Z,6.17
2019-03-23T15:51:08.005Z,5.75
2019-03-23T15:56:11.504Z,6.55
2019-03-23T16:01:15.073Z,5.37
2019-03-23T16:06:18.644Z,5.70
2019-03-23T16:11:22.144Z,6.22
2019-03-23T16:16:25.602Z,5.58
2019-03-23T16:21:29.151Z,5.78
2019-03-23T16:26:32.721Z,5.45
2019-03-23T16:31:36.220Z,5.42
2019-03-23T16:36:39.773Z,6.00
2019-03-23T16:41:43.328Z,6.03
2019-03-23T16:46:46.842Z,5.72
2019-03-23T16:51:50.446Z,5.87
2019-03-23T16:56:53.953Z,5.87
2019-03-23T17:01:57.430Z,5.62
2019-03-23T17:07:00.886Z,5.67
2019-03-23T17:12:04.433Z,5.78
2019-03-23T17:17:09.273Z,6.85
2019-03-23T17:22:12.766Z,10.63
2019-03-23T17:27:16.301Z,11.88
2019-03-23T17:32:19.834Z,12.63
2019-03-23T17:37:23.398Z,14.90
2019-03-23T17:42:26.885Z,14.03
2019-03-23T17:47:30.456Z,15.15
2019-03-23T17:52:34.009Z,15.35
2019-03-23T17:57:37.526Z,15.48
2019-03-23T18:02:41.143Z,17.42
2019-03-23T18:07:44.630Z,16.87
2019-03-23T18:12:48.191Z,20.30
2019-03-23T18:17:51.671Z,21.20
2019-03-23T18:22:55.224Z,21.17
2019-03-23T18:27:58.702Z,20.65
2019-03-23T18:33:02.612Z,22.22
2019-03-23T18:38:06.610Z,23.55
2019-03-23T18:43:10.967Z,22.05
2019-03-23T18:48:14.462Z,23.32
2019-03-23T18:53:18.037Z,24.63
2019-03-23T18:58:21.525Z,23.47
2019-03-23T19:03:25.122Z,24.15
2019-03-23T19:08:28.703Z,23.42
2019-03-23T19:13:37.902Z,23.38
2019-03-23T19:18:37.534Z,25.82
2019-03-23T19:23:41.070Z,25.23
2019-03-23T19:28:44.547Z,25.52
2019-03-23T19:33:48.018Z,26.50
2019-03-23T19:38:51.521Z,25.75
2019-03-23T19:43:55.093Z,26.55
2019-03-23T19:48:58.573Z,27.02
2019-03-23T19:54:02.050Z,27.85
2019-03-23T19:59:05.534Z,28.25
2019-03-23T20:04:09.104Z,26.50
2019-03-23T20:09:12.680Z,28.20
2019-03-23T20:14:16.875Z,28.77
2019-03-23T20:19:20.479Z,27.32
2019-03-23T20:24:24.085Z,27.82
2019-03-23T20:29:27.640Z,29.00
2019-03-23T20:34:31.135Z,28.17
2019-03-23T20:39:34.683Z,26.95
2019-03-23T20:44:38.248Z,28.65
2019-03-23T20:49:42.350Z,29.07
2019-03-23T20:54:47.172Z,28.23
2019-03-23T20:59:51.450Z,28.10
2019-03-23T21:04:55.783Z,28.70
2019-03-23T21:10:00.017Z,28.23
2019-03-23T21:15:05.350Z,27.85
2019-03-23T21:20:09.776Z,25.68
2019-03-23T21:25:14.003Z,27.75
2019-03-23T21:30:18.753Z,26.55
2019-03-23T21:35:27.129Z,24.82
2019-03-23T21:40:28.029Z,26.17
2019-03-23T21:45:31.642Z,24.25
2019-03-23T21:50:46.792Z,23.83
2019-03-23T21:55:42.826Z,23.30
2019-03-23T22:00:46.341Z,24.85
2019-03-23T22:05:50.102Z,22.98
2019-03-23T22:10:53.661Z,23.00
2019-03-23T22:15:57.186Z,22.90
2019-03-23T22:21:00.751Z,22.22
2019-03-23T22:26:04.359Z,21.85
2019-03-23T22:31:07.901Z,21.77
2019-03-23T22:36:11.369Z,21.60
2019-03-23T22:41:14.847Z,20.30
2019-03-23T22:46:18.382Z,21.35
2019-03-23T22:51:23.366Z,20.32
2019-03-23T22:56:26.849Z,21.42
2019-03-23T23:01:30.318Z,20.60
2019-03-23T23:06:33.893Z,19.77
2019-03-23T23:11:37.480Z,19.60
2019-03-23T23:16:41.019Z,18.95
2019-03-23T23:21:44.498Z,18.73
2019-03-23T23:26:47.998Z,18.10
2019-03-23T23:31:51.598Z,18.73
2019-03-23T23:36:55.096Z,17.32
2019-03-23T23:41:58.666Z,17.27
2019-03-23T23:47:02.166Z,16.95
2019-03-23T23:52:05.719Z,16.82
2019-03-23T23:57:09.221Z,16.35
